Beaver County Airport Beaver Falls US
ICAO: KBVI
IATA: BFP
Category: Medium
Scheduled Services: No

Elevation: 1253 ft
TransAlt. 18000 ft.

Airport Communications:
PITTSBURGH APP/DEP:124.75
ATIS:118.35
PITTSBURGH CLNC DEL:124.85
CTAF:120.3
GND:121.8
ALTOONA RDO:115.8
TWR:120.3

KBVI Zoom In..

Runways:

(A) RW 10 length 4501 ft width 100 ft
LOC 109.30 / hdg 101

(B) RW 28 length 4501 ft width 100 ft
LOC 109.30 / hdg 281

Location; KBVI
Day. 23 / Time. 14.47 Zulu
* Altimeter: 29.64
* Temperature: 07° c. 44.6°f.
* Wind from: 220° Speed 13 kn with Gusts up to 16 kn.
Dewpoint: 00° c.
Visibility: 10 Statute Miles.
Clouds: Broken 4200 ft.
Clouds: Broken 6000 ft.
Clouds: Overcast 7000 ft.

KBVI 231447Z 22013G16KT 10SM BKN042 BKN060 OVC070 07/00 A2964


Wind From 220°
Speed 13 kn.

YouTube Music Video
 
jpsmedia.com for Web Design  worldairports.se 2018   terms of use